<?xml version="1.0" encoding="UTF-8" standalone="no" ?>
<gpx xmlns="http://www.topografix.com/GPX/1/1" xmlns:xsi="http://www.w3.org/2001/XMLSchema-instance" xsi:schemaLocation="http://www.topografix.com/GPX/1/1 http://www.topografix.com/GPX/1/1/gpx.xsd" version="1.1" creator="VisuGPX - https://www.visugpx.com">
  <metadata>
    <name>Au coeur de la réserve de Lilleau-des-Niges</name>
    <desc><![CDATA[
]]></desc>
  </metadata>
  <trk>
    <name><![CDATA[Au coeur de la réserve de Lilleau-des-Niges]]></name>
    <trkseg>
      <trkpt lat="46.24212" lon="-1.54425">
        <ele>2.083432</ele>
        <time>2020-01-12T10:59:34.305Z</time>
      </trkpt>
      <trkpt lat="46.24212" lon="-1.54424">
        <ele>2.083432</ele>
        <time>2020-01-12T10:59:35.229Z</time>
      </trkpt>
      <trkpt lat="46.2422" lon="-1.54412">
        <ele>2.083432</ele>
        <time>2020-01-12T10:59:46.596Z</time>
      </trkpt>
      <trkpt lat="46.24228" lon="-1.54412">
        <ele>2.083432</ele>
        <time>2020-01-12T10:59:54.517Z</time>
      </trkpt>
      <trkpt lat="46.24229" lon="-1.54402">
        <ele>2.083432</ele>
        <time>2020-01-12T11:00:01.142Z</time>
      </trkpt>
      <trkpt lat="46.24202" lon="-1.54388">
        <ele>2.083432</ele>
        <time>2020-01-12T11:00:29.696Z</time>
      </trkpt>
      <trkpt lat="46.24177" lon="-1.54385">
        <ele>2.083432</ele>
        <time>2020-01-12T11:00:55.104Z</time>
      </trkpt>
      <trkpt lat="46.24014" lon="-1.54424">
        <ele>1.73233</ele>
        <time>2020-01-12T11:03:40.508Z</time>
      </trkpt>
      <trkpt lat="46.24013" lon="-1.54414">
        <ele>1.715874</ele>
        <time>2020-01-12T11:03:47.806Z</time>
      </trkpt>
      <trkpt lat="46.24012" lon="-1.54409">
        <ele>1.709041</ele>
        <time>2020-01-12T11:03:50.868Z</time>
      </trkpt>
      <trkpt lat="46.23952" lon="-1.54412">
        <ele>1.596001</ele>
        <time>2020-01-12T11:04:51.528Z</time>
      </trkpt>
      <trkpt lat="46.23939" lon="-1.54412">
        <ele>1.573987</ele>
        <time>2020-01-12T11:05:04.167Z</time>
      </trkpt>
      <trkpt lat="46.23917" lon="-1.54412">
        <ele>1.535044</ele>
        <time>2020-01-12T11:05:26.499Z</time>
      </trkpt>
      <trkpt lat="46.23897" lon="-1.54412">
        <ele>1.500989</ele>
        <time>2020-01-12T11:05:46.141Z</time>
      </trkpt>
      <trkpt lat="46.2389" lon="-1.54413">
        <ele>1.488576</ele>
        <time>2020-01-12T11:05:53.221Z</time>
      </trkpt>
      <trkpt lat="46.23835" lon="-1.54424">
        <ele>1.392243</ele>
        <time>2020-01-12T11:06:48.735Z</time>
      </trkpt>
      <trkpt lat="46.23831" lon="-1.54425">
        <ele>1.385174</ele>
        <time>2020-01-12T11:06:52.836Z</time>
      </trkpt>
      <trkpt lat="46.23645" lon="-1.54455">
        <ele>1.026069</ele>
        <time>2020-01-12T11:10:01.572Z</time>
      </trkpt>
      <trkpt lat="46.23634" lon="-1.54449">
        <ele>1.013705</ele>
        <time>2020-01-12T11:10:12.898Z</time>
      </trkpt>
      <trkpt lat="46.23632" lon="-1.54344">
        <ele>0.99234</ele>
        <time>2020-01-12T11:11:25.362Z</time>
      </trkpt>
      <trkpt lat="46.23625" lon="-1.54322">
        <ele>0.987364</ele>
        <time>2020-01-12T11:11:42.285Z</time>
      </trkpt>
      <trkpt lat="46.2354" lon="-1.54166">
        <ele>0.988569</ele>
        <time>2020-01-12T11:14:00.042Z</time>
      </trkpt>
      <trkpt lat="46.23455" lon="-1.54008">
        <ele>1.021266</ele>
        <time>2020-01-12T11:16:19.641Z</time>
      </trkpt>
      <trkpt lat="46.2345" lon="-1.54002">
        <ele>1.00198</ele>
        <time>2020-01-12T11:16:26.192Z</time>
      </trkpt>
      <trkpt lat="46.23428" lon="-1.54003">
        <ele>0.93671</ele>
        <time>2020-01-12T11:16:48.438Z</time>
      </trkpt>
      <trkpt lat="46.23358" lon="-1.54065">
        <ele>0.696161</ele>
        <time>2020-01-12T11:18:10.539Z</time>
      </trkpt>
      <trkpt lat="46.23293" lon="-1.54139">
        <ele>0.449101</ele>
        <time>2020-01-12T11:19:34.078Z</time>
      </trkpt>
      <trkpt lat="46.23231" lon="-1.5398">
        <ele>0.058374</ele>
        <time>2020-01-12T11:21:41.495Z</time>
      </trkpt>
      <trkpt lat="46.23155" lon="-1.53783">
        <ele>0.106267</ele>
        <time>2020-01-12T11:24:18.815Z</time>
      </trkpt>
      <trkpt lat="46.23149" lon="-1.53765">
        <ele>0.121672</ele>
        <time>2020-01-12T11:24:32.871Z</time>
      </trkpt>
      <trkpt lat="46.23086" lon="-1.53411">
        <ele>0.571068</ele>
        <time>2020-01-12T11:28:48.529Z</time>
      </trkpt>
      <trkpt lat="46.23081" lon="-1.5339">
        <ele>0.591404</ele>
        <time>2020-01-12T11:29:04.044Z</time>
      </trkpt>
      <trkpt lat="46.23066" lon="-1.53328">
        <ele>0.650991</ele>
        <time>2020-01-12T11:29:49.577Z</time>
      </trkpt>
      <trkpt lat="46.2301" lon="-1.53178">
        <ele>0.751482</ele>
        <time>2020-01-12T11:31:48.647Z</time>
      </trkpt>
      <trkpt lat="46.22998" lon="-1.53154">
        <ele>0.74307</ele>
        <time>2020-01-12T11:32:08.993Z</time>
      </trkpt>
      <trkpt lat="46.23008" lon="-1.53143">
        <ele>0.737786</ele>
        <time>2020-01-12T11:32:21.754Z</time>
      </trkpt>
      <trkpt lat="46.2304" lon="-1.53104">
        <ele>0.720469</ele>
        <time>2020-01-12T11:33:03.445Z</time>
      </trkpt>
      <trkpt lat="46.23053" lon="-1.53088">
        <ele>0.713408</ele>
        <time>2020-01-12T11:33:20.477Z</time>
      </trkpt>
      <trkpt lat="46.23069" lon="-1.53034">
        <ele>0.696599</ele>
        <time>2020-01-12T11:34:01.036Z</time>
      </trkpt>
      <trkpt lat="46.23071" lon="-1.52923">
        <ele>0.613363</ele>
        <time>2020-01-12T11:35:18.764Z</time>
      </trkpt>
      <trkpt lat="46.23051" lon="-1.52679">
        <ele>0.416523</ele>
        <time>2020-01-12T11:38:09.922Z</time>
      </trkpt>
      <trkpt lat="46.23061" lon="-1.52616">
        <ele>0.374405</ele>
        <time>2020-01-12T11:38:54.544Z</time>
      </trkpt>
      <trkpt lat="46.23103" lon="-1.52509">
        <ele>0.293592</ele>
        <time>2020-01-12T11:40:19.919Z</time>
      </trkpt>
      <trkpt lat="46.23149" lon="-1.52439">
        <ele>0.211467</ele>
        <time>2020-01-12T11:41:27.679Z</time>
      </trkpt>
      <trkpt lat="46.23195" lon="-1.52328">
        <ele>0.10307</ele>
        <time>2020-01-12T11:42:57.133Z</time>
      </trkpt>
      <trkpt lat="46.23195" lon="-1.52323">
        <ele>0.098261</ele>
        <time>2020-01-12T11:43:01.103Z</time>
      </trkpt>
      <trkpt lat="46.23194" lon="-1.52314">
        <ele>0.090663</ele>
        <time>2020-01-12T11:43:07.392Z</time>
      </trkpt>
      <trkpt lat="46.23167" lon="-1.52099">
        <ele>-0.051188</ele>
        <time>2020-01-12T11:45:39.147Z</time>
      </trkpt>
      <trkpt lat="46.23208" lon="-1.51945">
        <ele>0.028436</ele>
        <time>2020-01-12T11:47:34.113Z</time>
      </trkpt>
      <trkpt lat="46.23232" lon="-1.51913">
        <ele>0.08041</ele>
        <time>2020-01-12T11:48:06.937Z</time>
      </trkpt>
      <trkpt lat="46.23266" lon="-1.51892">
        <ele>0.140544</ele>
        <time>2020-01-12T11:48:44.773Z</time>
      </trkpt>
      <trkpt lat="46.23297" lon="-1.51839">
        <ele>0.238209</ele>
        <time>2020-01-12T11:49:33.254Z</time>
      </trkpt>
      <trkpt lat="46.23412" lon="-1.51673">
        <ele>0.800819</ele>
        <time>2020-01-12T11:52:18.170Z</time>
      </trkpt>
      <trkpt lat="46.23433" lon="-1.51661">
        <ele>0.861032</ele>
        <time>2020-01-12T11:52:41.118Z</time>
      </trkpt>
      <trkpt lat="46.2346" lon="-1.51578">
        <ele>1.011673</ele>
        <time>2020-01-12T11:53:45.362Z</time>
      </trkpt>
      <trkpt lat="46.23498" lon="-1.51522">
        <ele>1.140537</ele>
        <time>2020-01-12T11:54:40.169Z</time>
      </trkpt>
      <trkpt lat="46.23504" lon="-1.51509">
        <ele>1.166311</ele>
        <time>2020-01-12T11:54:51.113Z</time>
      </trkpt>
      <trkpt lat="46.23506" lon="-1.51503">
        <ele>1.176678</ele>
        <time>2020-01-12T11:54:55.547Z</time>
      </trkpt>
      <trkpt lat="46.23509" lon="-1.51463">
        <ele>1.243109</ele>
        <time>2020-01-12T11:55:23.642Z</time>
      </trkpt>
      <trkpt lat="46.2351" lon="-1.51454">
        <ele>1.249543</ele>
        <time>2020-01-12T11:55:29.648Z</time>
      </trkpt>
      <trkpt lat="46.2351" lon="-1.51433">
        <ele>1.251416</ele>
        <time>2020-01-12T11:55:44.724Z</time>
      </trkpt>
      <trkpt lat="46.2344" lon="-1.51373">
        <ele>1.261598</ele>
        <time>2020-01-12T11:57:06.036Z</time>
      </trkpt>
      <trkpt lat="46.23415" lon="-1.5135">
        <ele>1.265228</ele>
        <time>2020-01-12T11:57:35.060Z</time>
      </trkpt>
      <trkpt lat="46.23412" lon="-1.51348">
        <ele>1.265668</ele>
        <time>2020-01-12T11:57:38.638Z</time>
      </trkpt>
      <trkpt lat="46.23388" lon="-1.51352">
        <ele>1.268765</ele>
        <time>2020-01-12T11:58:03.403Z</time>
      </trkpt>
      <trkpt lat="46.23374" lon="-1.51348">
        <ele>1.27049</ele>
        <time>2020-01-12T11:58:17.208Z</time>
      </trkpt>
      <trkpt lat="46.23357" lon="-1.51332">
        <ele>1.269734</ele>
        <time>2020-01-12T11:58:37.706Z</time>
      </trkpt>
      <trkpt lat="46.23345" lon="-1.51303">
        <ele>1.265699</ele>
        <time>2020-01-12T11:59:01.326Z</time>
      </trkpt>
      <trkpt lat="46.23342" lon="-1.51291">
        <ele>1.26427</ele>
        <time>2020-01-12T11:59:09.718Z</time>
      </trkpt>
      <trkpt lat="46.23346" lon="-1.51279">
        <ele>1.262703</ele>
        <time>2020-01-12T11:59:18.940Z</time>
      </trkpt>
      <trkpt lat="46.23396" lon="-1.51247">
        <ele>1.253181</ele>
        <time>2020-01-12T12:00:14.649Z</time>
      </trkpt>
      <trkpt lat="46.23375" lon="-1.51172">
        <ele>1.24358</ele>
        <time>2020-01-12T12:01:10.974Z</time>
      </trkpt>
      <trkpt lat="46.23374" lon="-1.51165">
        <ele>1.242801</ele>
        <time>2020-01-12T12:01:15.647Z</time>
      </trkpt>
      <trkpt lat="46.23375" lon="-1.51161">
        <ele>1.242282</ele>
        <time>2020-01-12T12:01:18.731Z</time>
      </trkpt>
      <trkpt lat="46.23389" lon="-1.51133">
        <ele>1.262514</ele>
        <time>2020-01-12T12:01:42.081Z</time>
      </trkpt>
      <trkpt lat="46.23383" lon="-1.51098">
        <ele>1.299028</ele>
        <time>2020-01-12T12:02:07.630Z</time>
      </trkpt>
      <trkpt lat="46.234" lon="-1.51076">
        <ele>1.332209</ele>
        <time>2020-01-12T12:02:30.740Z</time>
      </trkpt>
      <trkpt lat="46.23483" lon="-1.51008">
        <ele>1.469073</ele>
        <time>2020-01-12T12:04:06.353Z</time>
      </trkpt>
      <trkpt lat="46.23508" lon="-1.50993">
        <ele>1.505569</ele>
        <time>2020-01-12T12:04:34.059Z</time>
      </trkpt>
      <trkpt lat="46.23626" lon="-1.50878">
        <ele>1.637579</ele>
        <time>2020-01-12T12:06:57.726Z</time>
      </trkpt>
      <trkpt lat="46.23648" lon="-1.50763">
        <ele>1.585024</ele>
        <time>2020-01-12T12:08:20.374Z</time>
      </trkpt>
      <trkpt lat="46.23651" lon="-1.50754">
        <ele>1.574812</ele>
        <time>2020-01-12T12:08:26.816Z</time>
      </trkpt>
      <trkpt lat="46.23646" lon="-1.50747">
        <ele>1.563914</ele>
        <time>2020-01-12T12:08:33.796Z</time>
      </trkpt>
      <trkpt lat="46.23549" lon="-1.50596">
        <ele>1.316639</ele>
        <time>2020-01-12T12:10:56.759Z</time>
      </trkpt>
      <trkpt lat="46.23541" lon="-1.50597">
        <ele>1.296083</ele>
        <time>2020-01-12T12:11:05.458Z</time>
      </trkpt>
      <trkpt lat="46.23497" lon="-1.50629">
        <ele>1.181092</ele>
        <time>2020-01-12T12:11:54.361Z</time>
      </trkpt>
      <trkpt lat="46.23476" lon="-1.50621">
        <ele>1.129068</ele>
        <time>2020-01-12T12:12:16.476Z</time>
      </trkpt>
      <trkpt lat="46.23456" lon="-1.50597">
        <ele>1.067978</ele>
        <time>2020-01-12T12:12:42.598Z</time>
      </trkpt>
      <trkpt lat="46.23437" lon="-1.50585">
        <ele>1.018287</ele>
        <time>2020-01-12T12:13:03.814Z</time>
      </trkpt>
      <trkpt lat="46.23438" lon="-1.50573">
        <ele>0.999535</ele>
        <time>2020-01-12T12:13:11.885Z</time>
      </trkpt>
      <trkpt lat="46.23469" lon="-1.50475">
        <ele>0.639439</ele>
        <time>2020-01-12T12:14:27.355Z</time>
      </trkpt>
      <trkpt lat="46.23498" lon="-1.5041">
        <ele>0.332622</ele>
        <time>2020-01-12T12:15:22.193Z</time>
      </trkpt>
      <trkpt lat="46.23505" lon="-1.50383">
        <ele>0.22156</ele>
        <time>2020-01-12T12:15:42.243Z</time>
      </trkpt>
      <trkpt lat="46.23456" lon="-1.50284">
        <ele>-0.166162</ele>
        <time>2020-01-12T12:17:08.127Z</time>
      </trkpt>
      <trkpt lat="46.2343" lon="-1.50214">
        <ele>-0.326502</ele>
        <time>2020-01-12T12:18:03.449Z</time>
      </trkpt>
      <trkpt lat="46.23412" lon="-1.50184">
        <ele>-0.407398</ele>
        <time>2020-01-12T12:18:31.265Z</time>
      </trkpt>
      <trkpt lat="46.23423" lon="-1.50141">
        <ele>-0.501938</ele>
        <time>2020-01-12T12:19:03.735Z</time>
      </trkpt>
      <trkpt lat="46.23426" lon="-1.50105">
        <ele>-0.575249</ele>
        <time>2020-01-12T12:19:28.839Z</time>
      </trkpt>
      <trkpt lat="46.2346" lon="-1.5009">
        <ele>-0.54893</ele>
        <time>2020-01-12T12:20:04.566Z</time>
      </trkpt>
      <trkpt lat="46.23465" lon="-1.49996">
        <ele>-0.44773</ele>
        <time>2020-01-12T12:21:10.438Z</time>
      </trkpt>
      <trkpt lat="46.23479" lon="-1.49991">
        <ele>-0.426052</ele>
        <time>2020-01-12T12:21:24.543Z</time>
      </trkpt>
      <trkpt lat="46.23484" lon="-1.49993">
        <ele>-0.417911</ele>
        <time>2020-01-12T12:21:29.824Z</time>
      </trkpt>
      <trkpt lat="46.235" lon="-1.5">
        <ele>-0.392057</ele>
        <time>2020-01-12T12:21:46.607Z</time>
      </trkpt>
      <trkpt lat="46.23522" lon="-1.50013">
        <ele>-0.354549</ele>
        <time>2020-01-12T12:22:11.032Z</time>
      </trkpt>
      <trkpt lat="46.23553" lon="-1.50027">
        <ele>-0.302036</ele>
        <time>2020-01-12T12:22:43.542Z</time>
      </trkpt>
      <trkpt lat="46.23583" lon="-1.50042">
        <ele>-0.240027</ele>
        <time>2020-01-12T12:23:16.136Z</time>
      </trkpt>
      <trkpt lat="46.23631" lon="-1.50115">
        <ele>-0.106313</ele>
        <time>2020-01-12T12:24:26.304Z</time>
      </trkpt>
      <trkpt lat="46.2366" lon="-1.50129">
        <ele>-0.047546</ele>
        <time>2020-01-12T12:24:57.078Z</time>
      </trkpt>
      <trkpt lat="46.23705" lon="-1.50222">
        <ele>0.025856</ele>
        <time>2020-01-12T12:26:15.571Z</time>
      </trkpt>
      <trkpt lat="46.23742" lon="-1.50245">
        <ele>0.020711</ele>
        <time>2020-01-12T12:26:55.817Z</time>
      </trkpt>
      <trkpt lat="46.23742" lon="-1.50274">
        <ele>0.018126</ele>
        <time>2020-01-12T12:27:16.077Z</time>
      </trkpt>
      <trkpt lat="46.2375" lon="-1.50287">
        <ele>0.016625</ele>
        <time>2020-01-12T12:27:27.854Z</time>
      </trkpt>
      <trkpt lat="46.23767" lon="-1.50292">
        <ele>0.014349</ele>
        <time>2020-01-12T12:27:45.704Z</time>
      </trkpt>
      <trkpt lat="46.23884" lon="-1.50272">
        <ele>0.090906</ele>
        <time>2020-01-12T12:29:43.869Z</time>
      </trkpt>
      <trkpt lat="46.23966" lon="-1.50313">
        <ele>0.201015</ele>
        <time>2020-01-12T12:31:10.742Z</time>
      </trkpt>
      <trkpt lat="46.24009" lon="-1.50327">
        <ele>0.338544</ele>
        <time>2020-01-12T12:31:56.220Z</time>
      </trkpt>
      <trkpt lat="46.24019" lon="-1.5034">
        <ele>0.418085</ele>
        <time>2020-01-12T12:32:09.480Z</time>
      </trkpt>
      <trkpt lat="46.24028" lon="-1.50372">
        <ele>0.564906</ele>
        <time>2020-01-12T12:32:34.044Z</time>
      </trkpt>
      <trkpt lat="46.24031" lon="-1.50384">
        <ele>0.619451</ele>
        <time>2020-01-12T12:32:43.194Z</time>
      </trkpt>
      <trkpt lat="46.24035" lon="-1.50379">
        <ele>0.64855</ele>
        <time>2020-01-12T12:32:48.150Z</time>
      </trkpt>
      <trkpt lat="46.24078" lon="-1.50387">
        <ele>0.917296</ele>
        <time>2020-01-12T12:33:33.182Z</time>
      </trkpt>
      <trkpt lat="46.24085" lon="-1.50388">
        <ele>0.957921</ele>
        <time>2020-01-12T12:33:40.147Z</time>
      </trkpt>
      <trkpt lat="46.24099" lon="-1.5039">
        <ele>1.042544</ele>
        <time>2020-01-12T12:33:54.166Z</time>
      </trkpt>
      <trkpt lat="46.24111" lon="-1.5039">
        <ele>1.118373</ele>
        <time>2020-01-12T12:34:06.956Z</time>
      </trkpt>
      <trkpt lat="46.24121" lon="-1.50388">
        <ele>1.178679</ele>
        <time>2020-01-12T12:34:17.135Z</time>
      </trkpt>
      <trkpt lat="46.24146" lon="-1.50374">
        <ele>1.339442</ele>
        <time>2020-01-12T12:34:44.981Z</time>
      </trkpt>
      <trkpt lat="46.24168" lon="-1.50357">
        <ele>1.391169</ele>
        <time>2020-01-12T12:35:10.258Z</time>
      </trkpt>
      <trkpt lat="46.24186" lon="-1.50336">
        <ele>1.438998</ele>
        <time>2020-01-12T12:35:33.681Z</time>
      </trkpt>
      <trkpt lat="46.24224" lon="-1.50296">
        <ele>1.537654</ele>
        <time>2020-01-12T12:36:21.394Z</time>
      </trkpt>
      <trkpt lat="46.24253" lon="-1.5027">
        <ele>1.60841</ele>
        <time>2020-01-12T12:36:55.254Z</time>
      </trkpt>
      <trkpt lat="46.24271" lon="-1.50258">
        <ele>1.6522</ele>
        <time>2020-01-12T12:37:16.217Z</time>
      </trkpt>
      <trkpt lat="46.24303" lon="-1.50233">
        <ele>1.689007</ele>
        <time>2020-01-12T12:37:52.206Z</time>
      </trkpt>
      <trkpt lat="46.24341" lon="-1.50207">
        <ele>1.531524</ele>
        <time>2020-01-12T12:38:34.894Z</time>
      </trkpt>
      <trkpt lat="46.24351" lon="-1.50202">
        <ele>1.492435</ele>
        <time>2020-01-12T12:38:45.514Z</time>
      </trkpt>
      <trkpt lat="46.24372" lon="-1.50289">
        <ele>1.256611</ele>
        <time>2020-01-12T12:39:49.614Z</time>
      </trkpt>
      <trkpt lat="46.24405" lon="-1.5043">
        <ele>1.022198</ele>
        <time>2020-01-12T12:41:33.918Z</time>
      </trkpt>
      <trkpt lat="46.24421" lon="-1.50494">
        <ele>1.000795</ele>
        <time>2020-01-12T12:42:21.239Z</time>
      </trkpt>
      <trkpt lat="46.24566" lon="-1.50822">
        <ele>1.158424</ele>
        <time>2020-01-12T12:46:53.216Z</time>
      </trkpt>
      <trkpt lat="46.2459" lon="-1.50882">
        <ele>0.993584</ele>
        <time>2020-01-12T12:47:41.762Z</time>
      </trkpt>
      <trkpt lat="46.24511" lon="-1.50964">
        <ele>0.660698</ele>
        <time>2020-01-12T12:49:19.998Z</time>
      </trkpt>
      <trkpt lat="46.24509" lon="-1.50968">
        <ele>0.6482</ele>
        <time>2020-01-12T12:49:23.637Z</time>
      </trkpt>
      <trkpt lat="46.24508" lon="-1.50971">
        <ele>0.639945</ele>
        <time>2020-01-12T12:49:26.121Z</time>
      </trkpt>
      <trkpt lat="46.24506" lon="-1.50975">
        <ele>0.629687</ele>
        <time>2020-01-12T12:49:29.218Z</time>
      </trkpt>
      <trkpt lat="46.24524" lon="-1.51039">
        <ele>0.564959</ele>
        <time>2020-01-12T12:50:16.786Z</time>
      </trkpt>
      <trkpt lat="46.24527" lon="-1.51054">
        <ele>0.570959</ele>
        <time>2020-01-12T12:50:28.187Z</time>
      </trkpt>
      <trkpt lat="46.2454" lon="-1.51087">
        <ele>0.584986</ele>
        <time>2020-01-12T12:50:54.759Z</time>
      </trkpt>
      <trkpt lat="46.24566" lon="-1.51149">
        <ele>0.611778</ele>
        <time>2020-01-12T12:51:45.183Z</time>
      </trkpt>
      <trkpt lat="46.24582" lon="-1.51168">
        <ele>0.622884</ele>
        <time>2020-01-12T12:52:06.168Z</time>
      </trkpt>
      <trkpt lat="46.24612" lon="-1.51176">
        <ele>0.639205</ele>
        <time>2020-01-12T12:52:37.361Z</time>
      </trkpt>
      <trkpt lat="46.24686" lon="-1.51158">
        <ele>1.097341</ele>
        <time>2020-01-12T12:53:54.041Z</time>
      </trkpt>
      <trkpt lat="46.24726" lon="-1.51249">
        <ele>1.671226</ele>
        <time>2020-01-12T12:55:11.179Z</time>
      </trkpt>
      <trkpt lat="46.24778" lon="-1.51251">
        <ele>2.072118</ele>
        <time>2020-01-12T12:56:04.781Z</time>
      </trkpt>
      <trkpt lat="46.24783" lon="-1.51244">
        <ele>2.122571</ele>
        <time>2020-01-12T12:56:11.451Z</time>
      </trkpt>
      <trkpt lat="46.24792" lon="-1.51247">
        <ele>2.196361</ele>
        <time>2020-01-12T12:56:21.197Z</time>
      </trkpt>
      <trkpt lat="46.248" lon="-1.51251">
        <ele>2.258666</ele>
        <time>2020-01-12T12:56:29.357Z</time>
      </trkpt>
      <trkpt lat="46.24806" lon="-1.51267">
        <ele>2.360211</ele>
        <time>2020-01-12T12:56:42.917Z</time>
      </trkpt>
      <trkpt lat="46.24805" lon="-1.51279">
        <ele>2.424639</ele>
        <time>2020-01-12T12:56:51.510Z</time>
      </trkpt>
      <trkpt lat="46.24816" lon="-1.51341">
        <ele>2.769029</ele>
        <time>2020-01-12T12:57:37.374Z</time>
      </trkpt>
      <trkpt lat="46.24827" lon="-1.5141">
        <ele>3.15136</ele>
        <time>2020-01-12T12:58:27.546Z</time>
      </trkpt>
      <trkpt lat="46.24827" lon="-1.51413">
        <ele>3.168555</ele>
        <time>2020-01-12T12:58:29.861Z</time>
      </trkpt>
      <trkpt lat="46.24833" lon="-1.51464">
        <ele>3.442832</ele>
        <time>2020-01-12T12:59:06.188Z</time>
      </trkpt>
      <trkpt lat="46.24833" lon="-1.51484">
        <ele>3.517355</ele>
        <time>2020-01-12T12:59:20.538Z</time>
      </trkpt>
      <trkpt lat="46.24832" lon="-1.51488">
        <ele>3.533438</ele>
        <time>2020-01-12T12:59:23.677Z</time>
      </trkpt>
      <trkpt lat="46.24832" lon="-1.51496">
        <ele>3.561687</ele>
        <time>2020-01-12T12:59:29.097Z</time>
      </trkpt>
      <trkpt lat="46.24825" lon="-1.51557">
        <ele>3.791286</ele>
        <time>2020-01-12T13:00:12.643Z</time>
      </trkpt>
      <trkpt lat="46.24813" lon="-1.51581">
        <ele>3.904273</ele>
        <time>2020-01-12T13:00:34.307Z</time>
      </trkpt>
      <trkpt lat="46.2481" lon="-1.51583">
        <ele>3.921131</ele>
        <time>2020-01-12T13:00:37.547Z</time>
      </trkpt>
      <trkpt lat="46.24792" lon="-1.51591">
        <ele>4.026109</ele>
        <time>2020-01-12T13:00:57.181Z</time>
      </trkpt>
      <trkpt lat="46.24778" lon="-1.51601">
        <ele>4.107859</ele>
        <time>2020-01-12T13:01:13.001Z</time>
      </trkpt>
      <trkpt lat="46.24762" lon="-1.51632">
        <ele>4.251684</ele>
        <time>2020-01-12T13:01:40.033Z</time>
      </trkpt>
      <trkpt lat="46.24758" lon="-1.51632">
        <ele>4.270002</ele>
        <time>2020-01-12T13:01:43.450Z</time>
      </trkpt>
      <trkpt lat="46.2476" lon="-1.51637">
        <ele>4.289353</ele>
        <time>2020-01-12T13:01:47.541Z</time>
      </trkpt>
      <trkpt lat="46.24768" lon="-1.51656">
        <ele>4.373864</ele>
        <time>2020-01-12T13:02:03.494Z</time>
      </trkpt>
      <trkpt lat="46.24718" lon="-1.51836">
        <ele>4.593087</ele>
        <time>2020-01-12T13:04:18.841Z</time>
      </trkpt>
      <trkpt lat="46.24708" lon="-1.51866">
        <ele>4.627157</ele>
        <time>2020-01-12T13:04:42.138Z</time>
      </trkpt>
      <trkpt lat="46.24708" lon="-1.51866">
        <ele>4.627157</ele>
        <time>2020-01-12T13:04:42.187Z</time>
      </trkpt>
      <trkpt lat="46.24695" lon="-1.51922">
        <ele>4.680004</ele>
        <time>2020-01-12T13:05:23.526Z</time>
      </trkpt>
      <trkpt lat="46.24682" lon="-1.51969">
        <ele>4.711351</ele>
        <time>2020-01-12T13:05:58.722Z</time>
      </trkpt>
      <trkpt lat="46.24673" lon="-1.52032">
        <ele>4.751146</ele>
        <time>2020-01-12T13:06:43.435Z</time>
      </trkpt>
      <trkpt lat="46.24661" lon="-1.52205">
        <ele>4.851354</ele>
        <time>2020-01-12T13:08:44.442Z</time>
      </trkpt>
      <trkpt lat="46.24659" lon="-1.52217">
        <ele>4.856756</ele>
        <time>2020-01-12T13:08:52.745Z</time>
      </trkpt>
      <trkpt lat="46.24654" lon="-1.5225">
        <ele>4.87235</ele>
        <time>2020-01-12T13:09:16.288Z</time>
      </trkpt>
      <trkpt lat="46.24641" lon="-1.52312">
        <ele>4.902264</ele>
        <time>2020-01-12T13:10:01.545Z</time>
      </trkpt>
      <trkpt lat="46.2463" lon="-1.52361">
        <ele>4.925909</ele>
        <time>2020-01-12T13:10:37.211Z</time>
      </trkpt>
      <trkpt lat="46.24605" lon="-1.52449">
        <ele>4.922488</ele>
        <time>2020-01-12T13:11:43.750Z</time>
      </trkpt>
      <trkpt lat="46.24596" lon="-1.52507">
        <ele>4.888311</ele>
        <time>2020-01-12T13:12:24.668Z</time>
      </trkpt>
      <trkpt lat="46.24578" lon="-1.52567">
        <ele>4.850143</ele>
        <time>2020-01-12T13:13:10.426Z</time>
      </trkpt>
      <trkpt lat="46.24555" lon="-1.52624">
        <ele>4.811729</ele>
        <time>2020-01-12T13:13:56.461Z</time>
      </trkpt>
      <trkpt lat="46.2455" lon="-1.52638">
        <ele>4.802571</ele>
        <time>2020-01-12T13:14:07.449Z</time>
      </trkpt>
      <trkpt lat="46.24532" lon="-1.52673">
        <ele>4.683362</ele>
        <time>2020-01-12T13:14:37.628Z</time>
      </trkpt>
      <trkpt lat="46.24495" lon="-1.528">
        <ele>4.241453</ele>
        <time>2020-01-12T13:16:14.157Z</time>
      </trkpt>
      <trkpt lat="46.24483" lon="-1.52863">
        <ele>4.030524</ele>
        <time>2020-01-12T13:17:00.287Z</time>
      </trkpt>
      <trkpt lat="46.24483" lon="-1.52875">
        <ele>3.991672</ele>
        <time>2020-01-12T13:17:08.905Z</time>
      </trkpt>
      <trkpt lat="46.2448" lon="-1.52891">
        <ele>3.942408</ele>
        <time>2020-01-12T13:17:20.096Z</time>
      </trkpt>
      <trkpt lat="46.24452" lon="-1.52997">
        <ele>3.607114</ele>
        <time>2020-01-12T13:18:39.752Z</time>
      </trkpt>
      <trkpt lat="46.24445" lon="-1.53053">
        <ele>3.436644</ele>
        <time>2020-01-12T13:19:20.185Z</time>
      </trkpt>
      <trkpt lat="46.24419" lon="-1.53158">
        <ele>3.202801</ele>
        <time>2020-01-12T13:20:37.270Z</time>
      </trkpt>
      <trkpt lat="46.24404" lon="-1.53187">
        <ele>3.212616</ele>
        <time>2020-01-12T13:21:03.299Z</time>
      </trkpt>
      <trkpt lat="46.2439" lon="-1.53259">
        <ele>3.231959</ele>
        <time>2020-01-12T13:21:54.652Z</time>
      </trkpt>
      <trkpt lat="46.24387" lon="-1.53273">
        <ele>3.235886</ele>
        <time>2020-01-12T13:22:05.106Z</time>
      </trkpt>
      <trkpt lat="46.24381" lon="-1.53299">
        <ele>3.243037</ele>
        <time>2020-01-12T13:22:24.274Z</time>
      </trkpt>
      <trkpt lat="46.24359" lon="-1.53417">
        <ele>3.262167</ele>
        <time>2020-01-12T13:23:49.692Z</time>
      </trkpt>
      <trkpt lat="46.24336" lon="-1.53464">
        <ele>3.260602</ele>
        <time>2020-01-12T13:24:29.240Z</time>
      </trkpt>
      <trkpt lat="46.24314" lon="-1.53549">
        <ele>3.258074</ele>
        <time>2020-01-12T13:25:32.854Z</time>
      </trkpt>
      <trkpt lat="46.24312" lon="-1.53603">
        <ele>3.256598</ele>
        <time>2020-01-12T13:26:10.148Z</time>
      </trkpt>
      <trkpt lat="46.24292" lon="-1.53707">
        <ele>2.960821</ele>
        <time>2020-01-12T13:27:25.651Z</time>
      </trkpt>
      <trkpt lat="46.24287" lon="-1.53733">
        <ele>2.875314</ele>
        <time>2020-01-12T13:27:44.789Z</time>
      </trkpt>
      <trkpt lat="46.2428" lon="-1.53845">
        <ele>2.521599</ele>
        <time>2020-01-12T13:29:04.038Z</time>
      </trkpt>
      <trkpt lat="46.24264" lon="-1.53932">
        <ele>2.31773</ele>
        <time>2020-01-12T13:30:06.735Z</time>
      </trkpt>
      <trkpt lat="46.24261" lon="-1.54003">
        <ele>2.179715</ele>
        <time>2020-01-12T13:30:56.636Z</time>
      </trkpt>
      <trkpt lat="46.2426" lon="-1.54017">
        <ele>2.152005</ele>
        <time>2020-01-12T13:31:06.653Z</time>
      </trkpt>
      <trkpt lat="46.24258" lon="-1.54149">
        <ele>1.938216</ele>
        <time>2020-01-12T13:32:38.160Z</time>
      </trkpt>
      <trkpt lat="46.24248" lon="-1.54182">
        <ele>1.938216</ele>
        <time>2020-01-12T13:33:03.102Z</time>
      </trkpt>
      <trkpt lat="46.24246" lon="-1.5422">
        <ele>1.938216</ele>
        <time>2020-01-12T13:33:30.037Z</time>
      </trkpt>
      <trkpt lat="46.2425" lon="-1.54307">
        <ele>1.938216</ele>
        <time>2020-01-12T13:34:30.674Z</time>
      </trkpt>
      <trkpt lat="46.24247" lon="-1.54328">
        <ele>1.938216</ele>
        <time>2020-01-12T13:34:46.020Z</time>
      </trkpt>
      <trkpt lat="46.24246" lon="-1.54338">
        <ele>1.938216</ele>
        <time>2020-01-12T13:34:52.951Z</time>
      </trkpt>
      <trkpt lat="46.24241" lon="-1.54392">
        <ele>1.938216</ele>
        <time>2020-01-12T13:35:31.482Z</time>
      </trkpt>
      <trkpt lat="46.24237" lon="-1.54398">
        <ele>1.938216</ele>
        <time>2020-01-12T13:35:37.260Z</time>
      </trkpt>
      <trkpt lat="46.24229" lon="-1.54402">
        <ele>1.938216</ele>
        <time>2020-01-12T13:35:46.550Z</time>
      </trkpt>
      <trkpt lat="46.24229" lon="-1.54402">
        <ele>1.938216</ele>
        <time>2020-01-12T13:35:46.597Z</time>
      </trkpt>
      <trkpt lat="46.24228" lon="-1.54412">
        <ele>1.938216</ele>
        <time>2020-01-12T13:35:53.245Z</time>
      </trkpt>
      <trkpt lat="46.2422" lon="-1.54412">
        <ele>1.938216</ele>
        <time>2020-01-12T13:36:01.215Z</time>
      </trkpt>
      <trkpt lat="46.24212" lon="-1.54424">
        <ele>1.938216</ele>
        <time>2020-01-12T13:36:12.609Z</time>
      </trkpt>
      <trkpt lat="46.24212" lon="-1.54425">
        <ele>1.938216</ele>
        <time>2020-01-12T13:36:13.533Z</time>
      </trkpt>
    </trkseg>
  </trk>
</gpx>